createdAt,value
2022-10-18T00:00:52.203Z,101355.13
2022-10-18T00:03:54.645Z,101356.03
2022-10-18T00:06:57.102Z,101359.09
2022-10-18T00:09:59.565Z,101366.69
2022-10-18T00:13:03.352Z,101370.81
2022-10-18T00:16:10.887Z,101367.03
2022-10-18T00:19:13.360Z,101372.88
2022-10-18T00:22:15.813Z,101373.69
2022-10-18T00:25:18.385Z,101372.72
2022-10-18T00:28:22.159Z,101379.09
2022-10-18T00:31:26.760Z,101381.16
2022-10-18T00:34:29.329Z,101382.69
2022-10-18T00:37:32.036Z,101393.41
2022-10-18T00:40:34.495Z,101387.22
2022-10-18T00:47:10.339Z,101391.81
2022-10-18T00:50:13.361Z,101382.31
2022-10-18T00:53:19.992Z,101388.69
2022-10-18T00:56:22.796Z,101395.47
2022-10-18T00:59:26.532Z,101409.13
2022-10-18T01:02:30.674Z,101411.31
2022-10-18T01:05:34.048Z,101418.09
2022-10-18T01:08:47.540Z,101412.50
2022-10-18T01:12:03.052Z,101412.16
2022-10-18T01:15:12.868Z,101407.56
2022-10-18T01:18:24.631Z,101398.13
2022-10-18T01:21:34.034Z,101402.38
2022-10-18T01:24:55.156Z,101406.34
2022-10-18T01:28:05.769Z,101399.88
2022-10-18T01:31:16.029Z,101396.59
2022-10-18T01:34:20.160Z,101395.75
2022-10-18T01:37:23.647Z,101390.28
2022-10-18T01:40:26.597Z,101387.16
2022-10-18T01:43:31.097Z,101400.34
2022-10-18T01:46:35.592Z,101397.00
2022-10-18T01:49:38.079Z,101415.25
2022-10-18T01:52:49.156Z,101402.75
2022-10-18T01:56:02.451Z,101396.38
2022-10-18T01:59:30.515Z,101397.31
2022-10-18T02:02:44.040Z,101396.22
2022-10-18T02:05:53.187Z,101400.38
2022-10-18T02:09:01.865Z,101396.06
2022-10-18T02:12:05.777Z,101399.88
2022-10-18T02:15:10.853Z,101399.03
2022-10-18T02:18:19.788Z,101392.47
2022-10-18T02:21:23.427Z,101391.03
2022-10-18T02:24:31.411Z,101398.91
2022-10-18T02:27:34.063Z,101405.16
2022-10-18T02:30:40.655Z,101386.63
2022-10-18T02:33:52.722Z,101384.69
2022-10-18T02:36:58.119Z,101373.06
2022-10-18T02:40:00.720Z,101377.81
2022-10-18T02:43:03.202Z,101376.28
2022-10-18T02:46:06.551Z,101383.94
2022-10-18T02:49:10.320Z,101386.13
2022-10-18T02:52:12.757Z,101386.88
2022-10-18T02:55:15.338Z,101385.38
2022-10-18T02:58:17.891Z,101391.03
2022-10-18T03:01:20.398Z,101387.72
2022-10-18T03:04:24.275Z,101406.50
2022-10-18T03:07:26.858Z,101404.53
2022-10-18T03:10:29.321Z,101413.94
2022-10-18T03:13:32.228Z,101419.78
2022-10-18T03:16:34.929Z,101430.88
2022-10-18T03:19:39.560Z,101434.75
2022-10-18T03:22:42.025Z,101435.31
2022-10-18T03:25:46.398Z,101422.88
2022-10-18T03:28:49.155Z,101421.78
2022-10-18T03:31:51.693Z,101408.59
2022-10-18T03:34:55.467Z,101400.09
2022-10-18T03:37:57.950Z,101397.72
2022-10-18T03:41:00.394Z,101413.03
2022-10-18T03:44:02.947Z,101407.69
2022-10-18T03:47:05.453Z,101418.19
2022-10-18T03:50:10.131Z,101413.00
2022-10-18T03:53:12.977Z,101410.88
2022-10-18T03:56:15.432Z,101406.94
2022-10-18T03:59:18.186Z,101414.13
2022-10-18T04:02:20.656Z,101417.69
2022-10-18T04:05:26.925Z,101423.44
2022-10-18T04:08:29.395Z,101428.34
2022-10-18T04:11:31.943Z,101432.44
2022-10-18T04:14:34.414Z,101432.91
2022-10-18T04:17:36.978Z,101435.13
2022-10-18T04:20:40.746Z,101439.50
2022-10-18T04:23:43.533Z,101428.06
2022-10-18T04:26:46.064Z,101442.31
2022-10-18T04:29:48.548Z,101437.59
2022-10-18T04:32:51.025Z,101427.69
2022-10-18T04:35:54.821Z,101425.44
2022-10-18T04:38:57.287Z,101424.84
2022-10-18T04:41:59.979Z,101415.38
2022-10-18T04:45:02.496Z,101418.25
2022-10-18T04:48:05.540Z,101424.25
2022-10-18T04:51:09.340Z,101419.56
2022-10-18T04:54:11.971Z,101416.34
2022-10-18T04:57:14.485Z,101406.50
2022-10-18T05:00:16.938Z,101414.06
2022-10-18T05:03:19.639Z,101425.28
2022-10-18T05:06:23.877Z,101423.09
2022-10-18T05:09:26.359Z,101430.63
2022-10-18T05:12:29.131Z,101429.81
2022-10-18T05:15:31.815Z,101430.22
2022-10-18T05:18:34.332Z,101417.84
2022-10-18T05:21:38.856Z,101426.38
2022-10-18T05:24:41.304Z,101419.56
2022-10-18T05:27:43.778Z,101415.81
2022-10-18T05:30:46.283Z,101425.47
2022-10-18T05:33:48.948Z,101421.03
2022-10-18T05:36:52.761Z,101414.28
2022-10-18T05:39:55.241Z,101413.38
2022-10-18T05:42:57.715Z,101417.03
2022-10-18T05:46:00.308Z,101415.78
2022-10-18T05:49:02.777Z,101403.00
2022-10-18T05:52:06.724Z,101414.00
2022-10-18T05:55:09.514Z,101415.66
2022-10-18T05:58:11.991Z,101418.06
2022-10-18T06:01:14.464Z,101423.69
2022-10-18T06:04:17.896Z,101417.81
2022-10-18T06:07:22.738Z,101414.41
2022-10-18T06:10:25.896Z,101406.81
2022-10-18T06:13:31.095Z,101411.50
2022-10-18T06:16:35.047Z,101400.34
2022-10-18T06:19:37.512Z,101398.72
2022-10-18T06:22:41.317Z,101403.63
2022-10-18T06:25:43.773Z,101401.47
2022-10-18T06:28:46.323Z,101399.31
2022-10-18T06:31:48.853Z,101392.63
2022-10-18T06:34:51.295Z,101393.09
2022-10-18T06:37:55.081Z,101400.56
2022-10-18T06:40:58.764Z,101412.97
2022-10-18T06:44:07.038Z,101414.16
2022-10-18T06:47:09.495Z,101418.19
2022-10-18T06:50:12.993Z,101422.59
2022-10-18T06:53:18.870Z,101419.31
2022-10-18T06:56:21.471Z,101418.41
2022-10-18T06:59:26.355Z,101400.50
2022-10-18T07:02:33.556Z,101401.25
2022-10-18T07:05:36.271Z,101403.38
2022-10-18T07:08:40.487Z,101410.66
2022-10-18T07:11:44.227Z,101413.25
2022-10-18T07:14:47.362Z,101421.44
2022-10-18T07:17:50.240Z,101419.13
2022-10-18T07:20:52.715Z,101421.25
2022-10-18T07:23:57.458Z,101431.28
2022-10-18T07:26:59.963Z,101444.69
2022-10-18T07:30:04.419Z,101449.94
2022-10-18T07:33:08.499Z,101448.47
2022-10-18T07:36:12.856Z,101459.00
2022-10-18T07:39:16.691Z,101472.34
2022-10-18T07:42:19.170Z,101478.06
2022-10-18T07:45:21.612Z,101484.72
2022-10-18T07:48:24.619Z,101485.91
2022-10-18T07:51:28.023Z,101479.91
2022-10-18T07:54:31.821Z,101484.44
2022-10-18T07:57:34.684Z,101482.66
2022-10-18T08:00:37.571Z,101485.53
2022-10-18T08:03:40.172Z,101473.97
2022-10-18T08:06:42.868Z,101475.19
2022-10-18T08:09:46.688Z,101471.19
2022-10-18T08:12:49.271Z,101474.59
2022-10-18T08:15:51.727Z,101470.69
2022-10-18T08:18:54.485Z,101471.22
2022-10-18T08:21:56.945Z,101463.31
2022-10-18T08:25:00.725Z,101465.84
2022-10-18T08:28:03.207Z,101460.44
2022-10-18T08:31:06.688Z,101446.06
2022-10-18T08:34:09.161Z,101445.13
2022-10-18T08:37:11.736Z,101458.53
2022-10-18T08:40:15.988Z,101451.94
2022-10-18T08:43:27.651Z,101457.31
2022-10-18T08:46:30.915Z,101461.97
2022-10-18T08:49:42.918Z,101464.19
2022-10-18T08:52:53.437Z,101462.72
2022-10-18T08:56:03.861Z,101463.94
2022-10-18T08:59:10.908Z,101461.38
2022-10-18T09:02:21.823Z,101461.59
2022-10-18T09:05:32.816Z,101464.88
2022-10-18T09:08:51.058Z,101465.56
2022-10-18T09:12:09.501Z,101463.59
2022-10-18T09:15:16.500Z,101471.09
2022-10-18T09:18:38.741Z,101464.03
2022-10-18T09:21:50.843Z,101466.09
2022-10-18T09:25:00.822Z,101459.94
2022-10-18T09:28:16.973Z,101460.44
2022-10-18T09:31:23.865Z,101456.19
2022-10-18T09:34:32.487Z,101462.25
2022-10-18T09:37:35.960Z,101460.28
2022-10-18T09:40:48.309Z,101461.41
2022-10-18T09:43:56.628Z,101462.66
2022-10-18T09:47:02.809Z,101454.72
2022-10-18T09:50:18.862Z,101457.75
2022-10-18T09:53:28.181Z,101459.81
2022-10-18T09:56:37.853Z,101453.44
2022-10-18T09:59:47.954Z,101460.56
2022-10-18T10:02:50.454Z,101459.69
2022-10-18T10:06:04.051Z,101457.38
2022-10-18T10:09:14.388Z,101460.34
2022-10-18T10:12:28.670Z,101450.09
2022-10-18T10:15:37.145Z,101450.53
2022-10-18T10:18:43.706Z,101452.75
2022-10-18T10:21:47.333Z,101459.47
2022-10-18T10:24:51.969Z,101446.25
2022-10-18T10:27:54.758Z,101425.75
2022-10-18T10:31:19.066Z,101429.50
2022-10-18T10:34:21.577Z,101444.75
2022-10-18T10:37:31.118Z,101445.66
2022-10-18T10:40:35.753Z,101447.00
2022-10-18T10:43:40.083Z,101446.06
2022-10-18T10:46:47.204Z,101442.09
2022-10-18T10:49:49.733Z,101437.97
2022-10-18T10:52:52.875Z,101446.19
2022-10-18T10:55:57.140Z,101437.63
2022-10-18T10:59:09.321Z,101443.81
2022-10-18T11:02:23.950Z,101452.91
2022-10-18T11:05:29.300Z,101451.78
2022-10-18T11:08:37.088Z,101442.13
2022-10-18T11:11:49.348Z,101427.63
2022-10-18T11:14:58.996Z,101429.94
2022-10-18T11:18:14.392Z,101431.03
2022-10-18T11:21:20.031Z,101425.78
2022-10-18T11:24:23.770Z,101424.44
2022-10-18T11:27:30.663Z,101421.06
2022-10-18T11:30:43.495Z,101412.25
2022-10-18T11:34:08.735Z,101406.91
2022-10-18T11:37:32.176Z,101408.50
2022-10-18T11:40:51.208Z,101398.47
2022-10-18T11:44:03.933Z,101394.81
2022-10-18T11:47:16.951Z,101395.53
2022-10-18T11:50:27.764Z,101393.59
2022-10-18T11:53:39.220Z,101390.41
2022-10-18T11:56:48.602Z,101387.34
2022-10-18T12:00:01.476Z,101373.56
2022-10-18T12:03:16.344Z,101378.81
2022-10-18T12:06:22.898Z,101386.03
2022-10-18T12:09:28.484Z,101370.84
2022-10-18T12:12:37.790Z,101380.09
2022-10-18T12:15:41.567Z,101383.63
2022-10-18T12:19:02.377Z,101383.91
2022-10-18T12:22:17.061Z,101379.94
2022-10-18T12:25:20.240Z,101389.66
2022-10-18T12:28:31.792Z,101377.28
2022-10-18T12:31:41.372Z,101383.28
2022-10-18T12:34:47.507Z,101376.34
2022-10-18T12:38:03.220Z,101376.97
2022-10-18T12:41:06.523Z,101372.53
2022-10-18T12:44:20.916Z,101365.53
2022-10-18T12:47:25.224Z,101368.31
2022-10-18T12:50:35.883Z,101358.75
2022-10-18T12:53:39.792Z,101362.69
2022-10-18T12:56:43.705Z,101353.69
2022-10-18T12:59:46.286Z,101361.59
2022-10-18T13:03:27.309Z,101370.50
2022-10-18T13:07:03.598Z,101363.78
2022-10-18T13:10:36.290Z,101361.72
2022-10-18T13:13:51.549Z,101366.38
2022-10-18T13:17:01.418Z,101362.91
2022-10-18T13:20:31.006Z,101364.41
2022-10-18T13:23:43.435Z,101370.63
2022-10-18T13:27:24.015Z,101369.03
2022-10-18T13:30:46.934Z,101376.22
2022-10-18T13:33:49.690Z,101379.28
2022-10-18T13:36:58.423Z,101380.53
2022-10-18T13:40:16.647Z,101381.13
2022-10-18T13:43:56.817Z,101380.75
2022-10-18T13:47:34.655Z,101384.50
2022-10-18T13:50:42.524Z,101379.47
2022-10-18T13:53:57.035Z,101376.97
2022-10-18T13:57:18.745Z,101378.19
2022-10-18T14:00:48.261Z,101372.94
2022-10-18T14:04:20.720Z,101375.97
2022-10-18T14:07:26.877Z,101381.09
2022-10-18T14:10:57.483Z,101380.41
2022-10-18T14:14:09.678Z,101380.28
2022-10-18T14:17:29.202Z,101383.06
2022-10-18T14:20:49.375Z,101372.78
2022-10-18T14:23:53.282Z,101382.31
2022-10-18T14:27:13.800Z,101374.28
2022-10-18T14:30:19.411Z,101381.59
2022-10-18T14:33:28.894Z,101388.53
2022-10-18T14:36:37.681Z,101383.38
2022-10-18T14:39:40.201Z,101390.13
2022-10-18T14:42:49.496Z,101392.13
2022-10-18T14:45:51.984Z,101379.75
2022-10-18T14:48:57.423Z,101389.91
2022-10-18T14:52:01.504Z,101388.78
2022-10-18T14:55:04.477Z,101379.59
2022-10-18T14:58:15.621Z,101376.28
2022-10-18T15:01:20.164Z,101372.47
2022-10-18T15:04:31.029Z,101362.63
2022-10-18T15:07:34.466Z,101370.09
2022-10-18T15:10:37.213Z,101367.94
2022-10-18T15:13:47.700Z,101373.19
2022-10-18T15:16:53.795Z,101373.19
2022-10-18T15:20:03.322Z,101375.13
2022-10-18T15:23:23.457Z,101375.31
2022-10-18T15:26:29.564Z,101387.25
2022-10-18T15:29:36.127Z,101385.50
2022-10-18T15:32:40.346Z,101374.94
2022-10-18T15:35:44.243Z,101372.97
2022-10-18T15:38:49.915Z,101380.81
2022-10-18T15:41:54.099Z,101386.16
2022-10-18T15:44:56.555Z,101384.88
2022-10-18T15:48:01.828Z,101378.47
2022-10-18T15:51:07.147Z,101389.06
2022-10-18T15:54:18.845Z,101387.03
2022-10-18T15:57:21.558Z,101395.22
2022-10-18T16:00:24.080Z,101397.19
2022-10-18T16:03:26.809Z,101397.38
2022-10-18T16:06:30.590Z,101389.19
2022-10-18T16:09:33.198Z,101394.16
2022-10-18T16:12:35.718Z,101381.81
2022-10-18T16:15:38.183Z,101386.13
2022-10-18T16:18:40.655Z,101381.91
2022-10-18T16:21:44.682Z,101392.28
2022-10-18T16:24:47.785Z,101402.75
2022-10-18T16:27:50.237Z,101397.09
2022-10-18T16:30:56.521Z,101409.13
2022-10-18T16:33:59.597Z,101413.81
2022-10-18T16:37:03.449Z,101413.38
2022-10-18T16:40:23.480Z,101417.16
2022-10-18T16:43:26.198Z,101416.81
2022-10-18T16:46:30.664Z,101426.03
2022-10-18T16:49:33.249Z,101411.59
2022-10-18T16:52:37.021Z,101413.41
2022-10-18T16:55:40.916Z,101426.03
2022-10-18T16:58:43.814Z,101422.56
2022-10-18T17:01:46.280Z,101419.28
2022-10-18T17:04:48.770Z,101421.28
2022-10-18T17:07:52.606Z,101422.59
2022-10-18T17:10:57.723Z,101430.34
2022-10-18T17:14:07.443Z,101427.41
2022-10-18T17:17:12.306Z,101429.69
2022-10-18T17:20:21.075Z,101429.84
2022-10-18T17:23:24.871Z,101439.25
2022-10-18T17:26:29.623Z,101441.88
2022-10-18T17:29:34.668Z,101442.91
2022-10-18T17:32:37.507Z,101444.34
2022-10-18T17:35:40.078Z,101452.38
2022-10-18T17:38:44.027Z,101446.69
2022-10-18T17:41:46.533Z,101443.34
2022-10-18T17:44:50.414Z,101442.97
2022-10-18T17:47:54.570Z,101450.06
2022-10-18T17:50:57.337Z,101449.66
2022-10-18T17:54:01.135Z,101448.59
2022-10-18T17:57:03.632Z,101449.31
2022-10-18T18:00:08.969Z,101448.72
2022-10-18T18:03:11.504Z,101450.00
2022-10-18T18:06:16.028Z,101453.69
2022-10-18T18:09:21.086Z,101457.91
2022-10-18T18:12:23.975Z,101456.47
2022-10-18T18:15:26.589Z,101456.66
2022-10-18T18:18:29.052Z,101459.94
2022-10-18T18:21:31.532Z,101441.72
2022-10-18T18:24:35.339Z,101448.44
2022-10-18T18:27:39.008Z,101452.81
2022-10-18T18:30:41.473Z,101457.91
2022-10-18T18:33:44.888Z,101461.84
2022-10-18T18:36:47.864Z,101463.97
2022-10-18T18:39:51.683Z,101454.22
2022-10-18T18:43:07.372Z,101464.22
2022-10-18T18:46:16.634Z,101455.34
2022-10-18T18:49:19.099Z,101457.91
2022-10-18T18:52:21.625Z,101459.81
2022-10-18T18:55:25.462Z,101457.56
2022-10-18T18:58:32.520Z,101464.44
2022-10-18T19:01:37.186Z,101455.69
2022-10-18T19:04:41.251Z,101456.47
2022-10-18T19:07:43.739Z,101459.97
2022-10-18T19:10:49.496Z,101458.25
2022-10-18T19:13:52.012Z,101454.69
2022-10-18T19:16:55.456Z,101462.59
2022-10-18T19:19:59.748Z,101462.34
2022-10-18T19:23:02.236Z,101470.94
2022-10-18T19:26:12.066Z,101469.75
2022-10-18T19:29:16.113Z,101461.25
2022-10-18T19:32:19.000Z,101471.66
2022-10-18T19:35:21.544Z,101478.75
2022-10-18T19:38:23.997Z,101477.69
2022-10-18T19:41:29.209Z,101475.25
2022-10-18T19:44:34.848Z,101483.84
2022-10-18T19:47:38.442Z,101480.03
2022-10-18T19:50:40.997Z,101488.09
2022-10-18T19:53:43.581Z,101486.78
2022-10-18T19:56:47.759Z,101490.47
2022-10-18T19:59:50.412Z,101495.28
2022-10-18T20:02:53.021Z,101496.03
2022-10-18T20:05:56.575Z,101496.09
2022-10-18T20:08:59.300Z,101489.28
2022-10-18T20:12:03.119Z,101483.94
2022-10-18T20:15:08.779Z,101493.84
2022-10-18T20:18:11.257Z,101497.81
2022-10-18T20:21:16.220Z,101494.78
2022-10-18T20:24:18.665Z,101504.06
2022-10-18T20:27:22.677Z,101502.91
2022-10-18T20:30:25.120Z,101501.81
2022-10-18T20:33:27.603Z,101499.50
2022-10-18T20:36:31.935Z,101500.09
2022-10-18T20:39:35.207Z,101500.69
2022-10-18T20:42:39.039Z,101500.78
2022-10-18T20:45:41.520Z,101491.06
2022-10-18T20:48:44.023Z,101501.44
2022-10-18T20:51:46.605Z,101493.75
2022-10-18T20:54:49.048Z,101487.28
2022-10-18T20:57:52.827Z,101484.44
2022-10-18T21:00:55.331Z,101487.09
2022-10-18T21:04:01.302Z,101485.78
2022-10-18T21:07:03.893Z,101487.66
2022-10-18T21:10:07.356Z,101477.66
2022-10-18T21:13:11.139Z,101473.78
2022-10-18T21:16:13.611Z,101477.38
2022-10-18T21:19:18.274Z,101480.09
2022-10-18T21:22:20.753Z,101480.09
2022-10-18T21:25:23.217Z,101481.31
2022-10-18T21:28:27.025Z,101481.00
2022-10-18T21:31:31.674Z,101478.66
2022-10-18T21:34:34.308Z,101474.13
2022-10-18T21:37:36.780Z,101475.44
2022-10-18T21:40:44.417Z,101464.97
2022-10-18T21:43:50.432Z,101479.19
2022-10-18T21:46:52.955Z,101474.81
2022-10-18T21:49:55.409Z,101472.00
2022-10-18T21:52:57.864Z,101475.56
2022-10-18T21:56:06.636Z,101461.94
2022-10-18T21:59:12.294Z,101466.13
2022-10-18T22:02:14.773Z,101475.13
2022-10-18T22:05:17.261Z,101475.56
2022-10-18T22:08:19.741Z,101474.66
2022-10-18T22:11:24.873Z,101469.47
2022-10-18T22:14:28.649Z,101469.19
2022-10-18T22:17:31.471Z,101465.41
2022-10-18T22:20:34.273Z,101469.72
2022-10-18T22:23:39.110Z,101455.56
2022-10-18T22:26:43.351Z,101459.03
2022-10-18T22:29:47.116Z,101459.25
2022-10-18T22:32:49.599Z,101455.78
2022-10-18T22:35:52.083Z,101451.94
2022-10-18T22:38:55.017Z,101451.00
2022-10-18T22:41:57.496Z,101454.19
2022-10-18T22:45:01.383Z,101459.09
2022-10-18T22:48:03.981Z,101453.84
2022-10-18T22:51:07.332Z,101457.09
2022-10-18T22:54:09.898Z,101453.22
2022-10-18T22:57:12.373Z,101442.75
2022-10-18T23:00:16.722Z,101447.03
2022-10-18T23:03:19.927Z,101440.53
2022-10-18T23:06:25.748Z,101445.50
2022-10-18T23:09:28.235Z,101448.00
2022-10-18T23:12:30.900Z,101441.13
2022-10-18T23:15:34.947Z,101448.75
2022-10-18T23:21:45.257Z,101450.91
2022-10-18T23:24:47.868Z,101445.66
2022-10-18T23:27:50.375Z,101456.25
